Energy Center, Louisiana
Current Conditions -  °F | °C
As of 3:53 AM on Friday 19 Dec 2014 (Local Time) from KLFT Reporting Station
Light Rain Light Rain  
Wind Chill: 58°   Ceiling: 700
Heat Index: 58°   Visibility: 4mi
Dew Point: 58°   Wind: 3mph
Humidity: 100%   Direction: 50°NE
Pressure: 30.04"   Gusts: NA
Location:  30.2247°N, 92.0198°W
Report Text: KLFT 190953Z 05003KT 4SM -RA BR OVC007 14/14 A3004 RMK AO2 LTG DSNT N AND NW RAE04B41 CIG 005V010 SLP171 P0001 T01440144
Loading
Personal Weather Stations






























Interactive Weather Map New forecast layout! Learn more

10-Day Weather Forecast

Advertisements
Track Severe Weather on mobile